Time;durP1;ratioP1;P1;durP2;ratioP2;P2;SDS_P1;SDS_P2;PMS_P1;PMS_P2;Temp;Humidity;BMP_temperature;BMP_pressure;BME280_temperature;BME280_humidity;BME280_pressure;Samples;Min_cycle;Max_cycle;Signal;HPM_P1;HPM_P2
2021/10/28 00:13:56;;;;;;;104.03;33.37;;;6.30;99.90;;;4.87;100.00;98659.56;5125545;27;20479;-71
2021/10/28 00:16:25;;;;;;;101.90;35.07;;;6.30;99.90;;;4.92;100.00;98661.75;5148743;27;20508;-71
2021/10/28 00:19:00;;;;;;;89.03;33.60;;;6.30;99.90;;;4.89;100.00;98657.56;5141420;27;20493;-71
2021/10/28 00:21:29;;;;;;;82.17;33.30;;;6.30;99.90;;;4.80;100.00;98655.84;5125708;27;21008;-72
2021/10/28 00:24:00;;;;;;;83.43;32.47;;;6.20;99.90;;;4.87;100.00;98658.72;5126517;27;20488;-71
2021/10/28 00:26:28;;;;;;;115.70;34.27;;;6.20;99.90;;;4.73;100.00;98652.97;5123967;27;20458;-71
2021/10/28 00:28:59;;;;;;;72.70;29.83;;;6.20;99.90;;;4.88;100.00;98653.22;5126211;27;20460;-71
2021/10/28 00:31:26;;;;;;;75.83;30.07;;;6.20;99.90;;;4.79;100.00;98655.03;5135783;27;20449;-74
2021/10/28 00:33:56;;;;;;;64.50;29.20;;;6.20;99.90;;;4.84;100.00;98659.88;5124031;27;20506;-73
2021/10/28 00:36:24;;;;;;;86.57;31.60;;;6.20;99.90;;;4.81;100.00;98652.19;5148243;27;20446;-72
2021/10/28 00:38:52;;;;;;;89.20;32.47;;;6.20;99.90;;;4.73;100.00;98650.31;5123913;27;20546;-73
2021/10/28 00:41:21;;;;;;;82.60;30.83;;;6.20;99.90;;;4.81;100.00;98657.53;5148212;27;20469;-72
2021/10/28 00:43:51;;;;;;;82.63;30.57;;;6.20;99.90;;;4.68;100.00;98652.66;5126716;27;20955;-73
2021/10/28 00:46:20;;;;;;;83.73;31.10;;;6.10;99.90;;;4.70;100.00;98652.47;5141657;27;20574;-74
2021/10/28 00:48:49;;;;;;;86.47;28.43;;;6.10;99.90;;;4.72;100.00;98645.13;5142497;27;21319;-72
2021/10/28 00:51:22;;;;;;;55.50;26.53;;;6.10;99.90;;;4.64;100.00;98646.78;5146831;27;20474;-71
2021/10/28 00:53:50;;;;;;;55.30;24.90;;;6.10;99.90;;;4.70;100.00;98639.94;5126733;27;20575;-73
2021/10/28 00:56:18;;;;;;;53.33;26.20;;;6.10;99.90;;;4.69;100.00;98648.97;5140044;27;20541;-73
2021/10/28 00:58:46;;;;;;;56.40;24.57;;;6.10;99.90;;;4.61;100.00;98647.09;5122750;27;20967;-71
2021/10/28 01:01:13;;;;;;;78.80;26.77;;;6.00;99.90;;;4.61;100.00;98643.56;5151885;27;20459;-73
2021/10/28 01:03:42;;;;;;;79.87;24.93;;;6.00;99.90;;;4.56;100.00;98651.25;5134901;27;20461;-71
2021/10/28 01:06:10;;;;;;;68.07;23.53;;;6.00;99.90;;;4.57;100.00;98655.59;5143793;27;20459;-77
2021/10/28 01:08:43;;;;;;;112.87;28.63;;;6.00;99.90;;;4.42;100.00;98653.53;5137188;27;20555;-71
2021/10/28 01:11:12;;;;;;;100.43;26.90;;;5.90;99.90;;;4.25;100.00;98656.13;5145113;27;20454;-71
2021/10/28 01:13:40;;;;;;;73.40;23.77;;;5.80;99.90;;;4.32;100.00;98655.47;5150648;27;20484;-72
2021/10/28 01:16:08;;;;;;;72.30;22.47;;;5.80;99.90;;;4.29;100.00;98647.78;5132270;27;20456;-71
2021/10/28 01:18:38;;;;;;;85.80;24.60;;;5.80;99.90;;;4.32;100.00;98648.31;5164340;27;20465;-70
2021/10/28 01:21:08;;;;;;;57.00;21.83;;;5.70;99.90;;;4.26;100.00;98651.63;5123928;27;20444;-70
2021/10/28 01:23:38;;;;;;;40.90;20.23;;;5.70;99.90;;;4.25;100.00;98648.09;5149184;27;20810;-70
2021/10/28 01:26:08;;;;;;;85.83;22.70;;;5.70;99.90;;;4.21;100.00;98644.09;5148758;27;20456;-73
2021/10/28 01:28:39;;;;;;;78.17;21.27;;;5.70;99.90;;;4.13;100.00;98640.53;5149084;27;20485;-71
2021/10/28 01:31:10;;;;;;;47.47;21.53;;;5.60;99.90;;;4.07;100.00;98650.03;5145134;27;20467;-72
2021/10/28 01:33:40;;;;;;;58.90;19.47;;;5.50;99.90;;;4.11;100.00;98638.84;5136314;27;20464;-72
2021/10/28 01:36:10;;;;;;;37.93;16.90;;;5.50;99.90;;;4.06;100.00;98643.00;5129676;27;20478;-71
2021/10/28 01:38:38;;;;;;;47.70;19.23;;;5.50;99.90;;;3.94;100.00;98639.72;5150579;27;21019;-70
2021/10/28 01:41:06;;;;;;;32.13;18.30;;;5.40;99.90;;;3.86;100.00;98632.50;5124902;27;20562;-72
2021/10/28 01:43:35;;;;;;;67.60;18.73;;;5.30;99.90;;;3.83;100.00;98630.13;5132623;27;20455;-72
2021/10/28 01:46:05;;;;;;;32.50;17.73;;;5.30;99.90;;;3.94;100.00;98629.88;5132338;27;20484;-72
2021/10/28 01:48:32;;;;;;;75.40;22.03;;;5.30;99.90;;;3.85;100.00;98630.81;5141740;27;20457;-73
2021/10/28 01:51:00;;;;;;;138.77;25.07;;;5.30;99.90;;;3.81;100.00;98627.63;5131599;27;20901;-72
2021/10/28 01:53:29;;;;;;;95.07;20.87;;;5.30;99.90;;;3.67;100.00;98613.00;5151619;27;20478;-72
2021/10/28 01:55:56;;;;;;;72.77;21.20;;;5.30;99.90;;;3.74;100.00;98625.75;5146443;27;20525;-72
2021/10/28 01:58:23;;;;;;;129.07;26.03;;;5.30;99.90;;;3.74;100.00;98623.06;5147672;27;20491;-72
2021/10/28 02:00:52;;;;;;;160.30;28.10;;;5.20;99.90;;;3.81;100.00;98619.63;5130135;27;20870;-71
2021/10/28 02:03:19;;;;;;;223.30;32.53;;;5.30;99.90;;;3.80;100.00;98619.75;5146599;27;20537;-73
2021/10/28 02:05:47;;;;;;;148.33;25.00;;;5.30;99.90;;;3.94;100.00;98613.84;5127136;27;20544;-72
2021/10/28 02:08:15;;;;;;;142.57;25.73;;;5.30;99.90;;;3.93;100.00;98616.66;5143695;27;20470;-75
2021/10/28 02:10:44;;;;;;;122.40;24.50;;;5.40;99.90;;;3.82;100.00;98623.13;5126033;27;20445;-71
2021/10/28 02:13:12;;;;;;;148.20;25.30;;;5.30;99.90;;;3.68;100.00;98620.00;5149230;27;20449;-72
2021/10/28 02:15:40;;;;;;;219.87;29.50;;;5.20;99.90;;;3.75;100.00;98614.06;5142377;27;20539;-71
2021/10/28 02:18:08;;;;;;;170.73;28.00;;;5.20;99.90;;;3.75;100.00;98619.41;5140890;27;20454;-73
2021/10/28 02:20:35;;;;;;;159.70;27.00;;;5.20;99.90;;;3.79;100.00;98605.56;5140799;27;20452;-72
2021/10/28 02:23:03;;;;;;;146.23;27.10;;;5.20;99.90;;;3.88;100.00;98608.28;5129661;27;20455;-76
2021/10/28 02:25:30;;;;;;;208.63;31.57;;;5.30;99.90;;;4.10;100.00;98613.09;5148124;27;20446;-71
2021/10/28 02:27:58;;;;;;;223.17;31.67;;;5.40;99.90;;;3.99;100.00;98604.50;5125460;27;20494;-71
2021/10/28 02:30:27;;;;;;;241.53;31.17;;;5.40;99.90;;;4.02;100.00;98609.53;5146468;27;20470;-71
2021/10/28 02:32:54;;;;;;;277.27;34.73;;;5.40;99.90;;;3.92;100.00;98599.78;5128461;27;20447;-71
2021/10/28 02:35:21;;;;;;;221.93;31.90;;;5.40;99.90;;;3.97;100.00;98602.81;5127728;27;20523;-71
2021/10/28 02:37:48;;;;;;;218.83;32.60;;;5.40;99.90;;;3.97;100.00;98602.81;5150280;27;20546;-72
2021/10/28 02:40:16;;;;;;;278.93;38.17;;;5.40;99.90;;;3.94;100.00;98599.63;5133216;27;20862;-71
2021/10/28 02:42:43;;;;;;;220.10;31.13;;;5.40;99.90;;;3.97;100.00;98602.00;5142910;27;20961;-71
2021/10/28 02:45:13;;;;;;;166.83;29.70;;;5.40;99.90;;;4.01;100.00;98594.47;5137621;27;20539;-75
2021/10/28 02:47:40;;;;;;;306.57;42.67;;;5.40;99.90;;;4.01;100.00;98597.16;5146356;27;20455;-73
2021/10/28 02:50:08;;;;;;;291.63;41.97;;;5.40;99.90;;;4.08;100.00;98598.19;5158505;27;20479;-71
2021/10/28 02:52:35;;;;;;;103.13;31.10;;;5.50;99.90;;;4.24;100.00;98587.59;5144367;27;20573;-72
2021/10/28 02:55:04;;;;;;;102.20;30.70;;;5.50;99.90;;;4.35;100.00;98593.66;5144976;27;20981;-73
2021/10/28 02:57:32;;;;;;;74.57;29.00;;;5.70;99.90;;;4.29;100.00;98594.28;5143488;27;20457;-71
2021/10/28 02:59:59;;;;;;;232.20;38.63;;;5.70;99.90;;;4.25;100.00;98594.59;5149217;27;20519;-72
2021/10/28 03:02:27;;;;;;;76.27;26.00;;;5.70;99.90;;;4.20;100.00;98593.41;5134465;27;20489;-72
2021/10/28 03:04:55;;;;;;;84.93;26.80;;;5.60;99.90;;;4.39;100.00;98597.66;5138524;27;20546;-72
2021/10/28 03:07:22;;;;;;;121.97;30.20;;;5.70;99.90;;;4.46;100.00;98592.50;5126187;27;20451;-72
2021/10/28 03:09:49;;;;;;;264.40;37.73;;;5.80;99.90;;;4.45;100.00;98588.97;5143945;27;20856;-73
2021/10/28 03:12:16;;;;;;;169.50;31.30;;;5.80;99.90;;;4.46;100.00;98587.97;5146047;27;20469;-71
2021/10/28 03:14:49;;;;;;;475.10;50.83;;;5.80;99.90;;;4.46;100.00;98590.66;5141672;27;20870;-71
2021/10/28 03:17:26;;;;;;;340.03;49.53;;;5.90;99.90;;;4.32;100.00;98585.94;5144399;27;20450;-71
2021/10/28 03:25:40;;;;;;;205.30;36.10;;;5.70;99.90;;;4.28;100.00;98587.25;5115307;27;20490;-72
2021/10/28 03:28:15;;;;;;;169.13;31.90;;;5.70;99.90;;;4.27;100.00;98588.25;5146528;27;20461;-73
2021/10/28 03:30:42;;;;;;;188.37;32.07;;;5.70;99.90;;;4.30;100.00;98587.94;5147290;27;20492;-74
2021/10/28 03:33:12;;;;;;;296.57;38.00;;;5.80;99.90;;;4.38;100.00;98590.66;5143647;27;20476;-73
2021/10/28 03:35:42;;;;;;;191.07;33.43;;;5.80;99.90;;;4.19;100.00;98584.56;5145498;27;20485;-73
2021/10/28 03:38:16;;;;;;;226.40;33.97;;;5.60;99.90;;;4.09;100.00;98589.19;5140391;27;20456;-72
2021/10/28 03:41:11;;;;;;;177.30;32.00;;;5.60;99.90;;;4.15;100.00;98593.88;5122831;27;20507;-73
2021/10/28 03:44:11;;;;;;;163.87;30.17;;;5.60;99.90;;;4.15;100.00;98599.22;5128415;27;20456;-74
2021/10/28 03:57:58;;;;;;;162.47;32.13;;;5.70;99.90;;;4.27;100.00;98606.97;5143609;27;20454;-73
2021/10/28 04:16:21;;;;;;;184.27;30.30;;;5.50;99.90;;;3.95;100.00;98602.16;5142847;27;20455;-71
2021/10/28 04:17:29;;;;;;;67.47;24.23;;;5.40;99.90;;;3.90;100.00;98601.78;5143136;27;20451;-75
2021/10/28 04:20:32;;;;;;;81.80;27.17;;;5.30;99.90;;;3.88;100.00;98598.44;5121450;27;20474;-73
2021/10/28 04:31:19;;;;;;;136.40;27.70;;;5.20;99.90;;;3.46;100.00;98589.28;5143550;27;20802;-73
2021/10/28 04:33:47;;;;;;;92.43;26.00;;;5.00;99.90;;;3.72;100.00;98598.34;5133166;27;20556;-72
2021/10/28 04:36:14;;;;;;;130.00;26.43;;;5.10;99.90;;;3.67;100.00;98596.97;5147511;27;20456;-74
2021/10/28 04:38:41;;;;;;;96.53;26.03;;;5.10;99.90;;;3.73;100.00;98595.50;5147485;27;20534;-72
2021/10/28 04:41:09;;;;;;;156.27;26.80;;;5.20;99.90;;;3.59;100.00;98601.41;5128475;27;20975;-71
2021/10/28 04:43:36;;;;;;;111.10;24.90;;;5.10;99.90;;;3.61;100.00;98602.94;5127421;27;20499;-71
2021/10/28 04:46:04;;;;;;;129.07;24.67;;;5.10;99.90;;;3.49;100.00;98598.84;5129066;27;20525;-72
2021/10/28 04:48:31;;;;;;;107.77;24.10;;;5.10;99.90;;;3.37;100.00;98596.41;5143028;27;21346;-71
2021/10/28 04:50:58;;;;;;;46.50;21.20;;;5.00;99.90;;;3.70;100.00;98601.16;5147342;27;20506;-72
2021/10/28 04:53:27;;;;;;;47.20;21.17;;;5.00;99.90;;;3.73;100.00;98600.03;5145447;27;20508;-71
2021/10/28 04:55:54;;;;;;;42.33;21.97;;;5.20;99.90;;;3.66;100.00;98599.81;5148982;27;20478;-71
2021/10/28 04:58:23;;;;;;;114.57;22.17;;;5.10;99.90;;;3.57;100.00;98598.91;5142308;27;20498;-73
2021/10/28 05:00:50;;;;;;;96.07;22.07;;;5.10;99.90;;;3.43;100.00;98594.13;5143096;27;20511;-72
2021/10/28 05:03:18;;;;;;;40.93;19.83;;;4.90;99.90;;;3.51;100.00;98597.69;5153597;27;20496;-72
2021/10/28 05:05:45;;;;;;;50.33;21.53;;;4.90;99.90;;;3.67;100.00;98594.28;5129708;27;20445;-70
2021/10/28 05:08:12;;;;;;;99.23;24.97;;;5.10;99.90;;;3.76;100.00;98599.69;5128630;27;20539;-74
2021/10/28 05:10:41;;;;;;;62.40;21.70;;;5.20;99.90;;;3.64;100.00;98593.75;5129297;27;20478;-71
2021/10/28 05:13:12;;;;;;;64.47;22.60;;;5.10;99.90;;;3.71;100.00;98588.63;5151854;27;20994;-72
2021/10/28 05:15:44;;;;;;;51.70;20.70;;;5.20;99.90;;;3.62;100.00;98593.06;5147251;27;20472;-70
2021/10/28 05:18:12;;;;;;;52.63;21.33;;;5.10;99.90;;;3.61;100.00;98586.91;5134968;27;20596;-70
2021/10/28 05:20:40;;;;;;;47.23;19.77;;;5.10;99.90;;;3.66;100.00;98595.28;5150913;27;20486;-74
2021/10/28 05:23:07;;;;;;;39.23;18.77;;;5.10;99.90;;;3.72;100.00;98590.31;5146541;27;20454;-73
2021/10/28 05:25:34;;;;;;;136.60;23.87;;;5.10;99.90;;;3.63;100.00;98589.41;5129193;27;20439;-73
2021/10/28 05:28:01;;;;;;;62.43;20.50;;;5.10;99.90;;;3.62;100.00;98585.06;5123836;27;20546;-73
2021/10/28 05:30:29;;;;;;;76.50;22.37;;;5.10;99.90;;;3.75;100.00;98587.34;5123456;27;20458;-75
2021/10/28 05:33:00;;;;;;;62.57;21.27;;;5.10;99.90;;;3.77;100.00;98582.66;5134242;27;20455;-73
2021/10/28 05:35:28;;;;;;;54.43;20.13;;;5.20;99.90;;;3.47;100.00;98572.25;5132804;27;20468;-75
2021/10/28 05:37:55;;;;;;;69.07;19.37;;;5.10;99.90;;;3.43;100.00;98586.13;5147977;27;21045;-75
2021/10/28 05:40:23;;;;;;;81.13;19.97;;;5.00;99.90;;;3.35;100.00;98593.06;5126251;27;20559;-72
2021/10/28 05:42:52;;;;;;;92.53;21.60;;;4.90;99.90;;;3.43;100.00;98588.78;5147783;27;20528;-72
2021/10/28 05:45:21;;;;;;;53.77;21.60;;;4.90;99.90;;;3.60;100.00;98582.56;5138838;27;20465;-73
2021/10/28 05:47:49;;;;;;;37.57;18.07;;;5.10;99.90;;;3.65;100.00;98588.25;5147204;27;20454;-73
2021/10/28 05:50:20;;;;;;;120.87;26.70;;;5.00;99.90;;;3.45;100.00;98584.13;5126201;27;20467;-72
2021/10/28 05:52:50;;;;;;;38.93;19.97;;;5.00;99.90;;;3.69;100.00;98578.94;5147188;27;21059;-71
2021/10/28 05:55:18;;;;;;;53.30;21.07;;;5.10;99.90;;;3.56;100.00;98575.81;5147556;27;20481;-72
2021/10/28 05:57:45;;;;;;;62.57;20.03;;;5.10;99.90;;;3.65;100.00;98582.09;5148197;27;20471;-74
2021/10/28 06:00:14;;;;;;;88.03;21.87;;;5.10;99.90;;;3.60;100.00;98579.88;5147484;27;20831;-76
2021/10/28 06:02:41;;;;;;;51.90;19.47;;;5.10;99.90;;;3.64;100.00;98578.56;5151724;27;20521;-72
2021/10/28 06:05:09;;;;;;;63.73;20.33;;;5.10;99.90;;;3.45;100.00;98584.94;5130158;27;20631;-72
2021/10/28 06:07:38;;;;;;;38.30;20.60;;;5.00;99.90;;;3.55;100.00;98568.81;5125439;27;20501;-72
2021/10/28 06:10:08;;;;;;;52.60;20.00;;;5.00;99.90;;;3.26;100.00;98530.72;5124260;27;20483;-75
2021/10/28 06:12:37;;;;;;;50.97;20.80;;;5.00;99.90;;;3.49;100.00;98569.44;5146404;27;20493;-71
2021/10/28 06:15:06;;;;;;;40.93;20.10;;;5.00;99.90;;;3.53;100.00;98579.69;5146933;27;20579;-77
2021/10/28 06:17:36;;;;;;;49.37;20.97;;;5.00;99.90;;;3.56;100.00;98575.81;5125695;27;20463;-75
2021/10/28 06:20:05;;;;;;;42.00;19.73;;;5.10;99.90;;;3.25;100.00;98522.84;5144144;27;20556;-75
2021/10/28 06:22:32;;;;;;;40.83;20.60;;;5.00;99.90;;;3.51;100.00;98575.47;5129841;27;20479;-75
2021/10/28 06:25:01;;;;;;;38.47;20.67;;;5.00;99.90;;;3.40;100.00;98564.03;5129464;27;20477;-74
2021/10/28 06:27:28;;;;;;;32.77;19.70;;;5.00;99.90;;;3.47;100.00;98568.78;5119776;27;20447;-75
2021/10/28 06:29:55;;;;;;;42.00;20.53;;;5.00;99.90;;;3.52;100.00;98569.97;5147800;27;20460;-76
2021/10/28 06:32:22;;;;;;;39.70;22.30;;;5.00;99.90;;;3.48;100.00;98530.38;5129210;27;20452;-75
2021/10/28 06:34:50;;;;;;;38.40;21.47;;;5.10;99.90;;;3.79;100.00;98572.66;5129548;27;20475;-74
2021/10/28 06:37:18;;;;;;;38.00;19.73;;;5.30;99.90;;;3.62;100.00;98559.19;5124306;27;20483;-74
2021/10/28 06:39:45;;;;;;;29.83;19.80;;;5.20;99.90;;;3.66;100.00;98568.56;5125449;27;20451;-76
2021/10/28 06:42:14;;;;;;;50.67;19.70;;;5.20;99.90;;;3.52;100.00;98567.31;5127713;27;20462;-74
2021/10/28 06:44:41;;;;;;;54.55;21.35;;;5.00;99.90;;;3.46;100.00;98572.44;5130836;27;20533;-75
2021/10/28 06:47:08;;;;;;;52.03;22.47;;;5.00;99.90;;;3.93;100.00;98581.91;5145286;27;20189;-74
2021/10/28 06:49:38;;;;;;;35.40;17.97;;;5.20;99.90;;;3.69;100.00;98570.91;5142072;27;20857;-73
2021/10/28 06:52:09;;;;;;;36.70;20.20;;;5.20;99.90;;;3.62;100.00;98567.19;5128178;27;20471;-73
2021/10/28 06:54:37;;;;;;;31.00;19.13;;;5.20;99.90;;;3.75;100.00;98566.78;5131288;27;20458;-72
2021/10/28 07:02:37;;;;;;;29.03;20.10;;;5.20;99.90;;;3.97;100.00;98560.03;5124450;27;20504;-73
2021/10/28 07:05:05;;;;;;;52.03;20.60;;;5.30;99.90;;;3.90;100.00;98564.38;5146646;27;20509;-72
2021/10/28 07:07:35;;;;;;;35.93;17.60;;;5.30;99.90;;;3.96;100.00;98561.03;5144103;27;20943;-73
2021/10/28 07:10:08;;;;;;;33.97;19.10;;;5.40;99.90;;;3.81;100.00;98568.84;5129395;27;20454;-72
2021/10/28 07:12:45;;;;;;;64.83;22.90;;;5.30;99.90;;;3.56;100.00;98567.81;5143166;27;20484;-73
2021/10/28 07:15:18;;;;;;;69.47;21.10;;;5.20;99.90;;;3.43;100.00;98528.16;5129173;27;21206;-73
2021/10/28 07:18:00;;;;;;;35.37;19.97;;;5.10;99.90;;;3.79;100.00;98569.97;5142325;27;20539;-73
2021/10/28 07:23:29;;;;;;;33.00;21.60;;;5.30;99.90;;;3.90;100.00;98559.00;5139889;27;20457;-72
2021/10/28 07:26:16;;;;;;;29.77;20.40;;;5.40;99.90;;;4.09;100.00;98559.75;5143408;27;20500;-75
2021/10/28 07:34:22;;;;;;;33.27;19.60;;;5.80;95.50;;;4.48;97.92;98561.94;5153989;27;20835;-72
2021/10/28 07:57:03;;;;;;;19.03;16.97;;;6.10;93.10;;;4.75;95.96;98551.94;5120870;27;20840;-73
2021/10/28 08:05:21;;;;;;;19.50;17.30;;;5.90;94.50;;;4.56;96.65;98555.75;5129946;27;20457;-75
2021/10/28 08:13:47;;;;;;;19.20;15.20;;;6.30;92.50;;;5.48;93.45;98535.19;5145475;27;20453;-74
2021/10/28 08:16:33;;;;;;;21.10;16.13;;;6.60;92.10;;;5.30;93.33;98535.38;5143435;27;20476;-73
2021/10/28 08:19:04;;;;;;;19.33;15.73;;;6.60;91.00;;;5.17;93.29;98533.22;5142300;27;20508;-73
2021/10/28 08:21:38;;;;;;;19.87;16.43;;;6.60;90.70;;;5.45;93.36;98530.19;5126929;27;20530;-74
2021/10/28 08:24:15;;;;;;;21.47;14.93;;;6.70;91.10;;;5.86;90.59;98538.13;5146903;27;20440;-73
2021/10/28 08:29:32;;;;;;;17.77;14.73;;;7.30;88.20;;;5.76;90.05;98510.69;5123153;27;20451;-74
2021/10/28 08:32:00;;;;;;;16.80;14.67;;;7.20;88.20;;;5.89;90.63;98496.72;5138302;27;20441;-73
2021/10/28 08:34:30;;;;;;;21.27;15.93;;;7.30;88.20;;;5.94;89.45;98530.06;5138547;27;20901;-73
2021/10/28 08:37:07;;;;;;;20.07;15.80;;;7.40;86.50;;;5.65;91.09;98526.09;5124908;27;21002;-73
2021/10/28 08:39:35;;;;;;;22.20;17.83;;;7.10;88.10;;;5.55;91.66;98525.47;5121792;27;20444;-72
2021/10/28 08:42:08;;;;;;;20.93;17.17;;;7.00;89.00;;;5.49;92.36;98516.28;5117827;27;20454;-73
2021/10/28 08:44:39;;;;;;;22.23;16.87;;;7.00;90.00;;;5.56;92.54;98511.06;5145242;27;20552;-75
2021/10/28 08:47:09;;;;;;;19.07;15.87;;;7.00;90.40;;;5.54;92.33;98502.38;5127444;27;20456;-74
2021/10/28 08:49:42;;;;;;;19.70;15.00;;;7.10;89.70;;;5.73;91.28;98498.44;5142432;27;20480;-73
2021/10/28 08:52:29;;;;;;;19.13;15.10;;;7.20;89.80;;;5.66;91.85;98516.25;5145132;27;20496;-73
2021/10/28 08:55:04;;;;;;;15.17;13.57;;;7.10;88.70;;;5.94;91.35;98510.47;5129707;27;20442;-73
2021/10/28 09:26:32;;;;;;;16.93;15.10;;;8.10;85.70;;;6.84;87.02;98492.19;5152898;27;20456;-72
2021/10/28 09:29:10;;;;;;;17.50;13.87;;;8.20;83.50;;;7.06;86.80;98490.50;5126751;27;20446;-72
2021/10/28 09:31:39;;;;;;;15.67;13.97;;;8.20;84.40;;;6.95;87.48;98493.63;5132488;27;20450;-72
2021/10/28 09:34:18;;;;;;;15.63;14.03;;;8.20;84.10;;;6.99;86.46;98486.84;5132300;27;20988;-73
2021/10/28 09:48:46;;;;;;;18.77;15.60;;;8.10;84.90;;;6.78;88.70;98476.78;5124350;27;20519;-72
2021/10/28 09:51:17;;;;;;;18.73;15.80;;;8.10;86.00;;;7.15;87.62;98479.66;5150502;27;20449;-78
2021/10/28 09:54:03;;;;;;;20.20;16.77;;;8.30;85.50;;;6.88;87.77;98471.16;5135445;27;20468;-71
2021/10/28 09:59:30;;;;;;;20.73;17.40;;;8.40;85.10;;;7.30;85.83;98475.16;5145087;27;20834;-72
2021/10/28 10:02:12;;;;;;;20.27;17.10;;;8.60;83.20;;;7.50;85.20;98480.00;5147633;27;20855;-72
2021/10/28 10:04:42;;;;;;;19.27;16.67;;;8.80;82.70;;;7.65;84.68;98464.69;5131087;27;20456;-72
2021/10/28 10:07:10;;;;;;;18.77;16.77;;;8.90;82.60;;;7.61;84.63;98471.47;5147741;27;20494;-72
2021/10/28 10:09:39;;;;;;;20.20;16.40;;;8.90;81.70;;;7.50;84.97;98477.31;5142839;27;20454;-71
2021/10/28 10:12:07;;;;;;;20.13;17.13;;;8.90;81.70;;;7.48;85.80;98472.13;5141693;27;20488;-74
2021/10/28 10:14:37;;;;;;;21.73;18.50;;;8.80;82.50;;;7.48;85.78;98473.97;5145184;27;21014;-73
2021/10/28 10:17:06;;;;;;;22.27;18.50;;;8.80;82.70;;;7.47;86.13;98470.47;5146112;27;20468;-73
2021/10/28 10:19:35;;;;;;;21.27;17.57;;;8.80;82.90;;;7.61;85.02;98476.84;5126748;27;20453;-73
2021/10/28 10:22:17;;;;;;;22.93;18.60;;;8.80;82.30;;;7.55;84.64;98474.91;5127463;27;20532;-73
2021/10/28 10:24:53;;;;;;;20.13;17.60;;;8.90;81.50;;;7.83;85.04;98479.66;5143060;27;20452;-75
2021/10/28 10:28:10;;;;;;;22.57;17.87;;;8.90;82.50;;;7.80;84.00;98466.56;5144659;27;20480;-73
2021/10/28 11:32:58;;;;;;;17.33;15.53;;;11.00;72.00;;;9.95;74.89;98411.00;5144939;27;20881;-73
2021/10/28 12:43:27;;;;;;;24.00;18.80;;;10.50;73.40;;;9.57;77.70;98350.25;5060508;27;20930;-69
2021/10/28 12:43:46;;;;;;;23.93;18.60;;;10.60;74.10;;;9.56;78.03;98342.38;5060614;28;20448;-70
2021/10/28 12:46:24;;;;;;;26.40;19.07;;;10.70;74.30;;;9.23;79.33;98341.16;5055627;28;20550;-70
2021/10/28 12:52:11;;;;;;;25.93;19.37;;;10.40;74.30;;;9.36;78.55;98337.69;5007553;28;20493;-70
2021/10/28 13:50:31;;;;;;;34.43;25.77;;;10.00;74.30;;;8.59;81.88;98305.31;5132579;27;20464;-73
2021/10/28 15:30:11;;;;;;;29.03;20.03;;;9.50;78.90;;;8.00;84.09;98258.81;5101261;28;20462;-71
2021/10/28 15:35:30;;;;;;;30.30;20.60;;;9.20;80.00;;;8.10;84.03;98256.59;5100281;28;20541;-73
2021/10/28 15:41:02;;;;;;;33.30;20.57;;;9.30;80.60;;;7.88;84.50;98248.53;5085129;28;20460;-70
2021/10/28 15:57:42;;;;;;;34.10;22.70;;;9.30;81.20;;;8.00;84.82;98251.53;5082019;28;20659;-71
2021/10/28 16:00:22;;;;;;;33.70;23.40;;;9.30;81.10;;;8.14;83.54;98257.06;5084665;28;20950;-71
2021/10/28 16:22:05;;;;;;;34.63;21.80;;;9.30;80.90;;;7.93;84.91;98270.31;5084514;28;20471;-70
2021/10/28 16:24:35;;;;;;;32.97;21.73;;;9.20;80.90;;;8.03;84.62;98259.22;5097919;27;20484;-70
2021/10/28 16:27:04;;;;;;;31.50;21.03;;;9.20;81.10;;;8.02;83.91;98252.19;5082316;28;20436;-71
2021/10/28 16:29:32;;;;;;;32.67;21.37;;;9.20;80.80;;;7.91;84.48;98250.84;5084065;28;20456;-72
2021/10/28 16:32:00;;;;;;;34.83;23.57;;;9.20;80.80;;;7.82;85.20;98251.16;5088442;28;20502;-74
2021/10/28 16:34:28;;;;;;;36.50;24.03;;;9.10;81.10;;;7.76;86.02;98258.16;5090080;28;20524;-72
2021/10/28 16:36:57;;;;;;;32.30;22.47;;;9.10;81.60;;;7.85;85.55;98256.16;5082136;28;20453;-70
2021/10/28 16:39:28;;;;;;;31.97;22.40;;;9.10;82.00;;;7.84;85.71;98260.72;5085495;28;21061;-71
2021/10/28 16:41:58;;;;;;;39.30;24.70;;;9.10;82.00;;;7.74;86.23;98261.03;5087804;28;20451;-70
2021/10/28 16:44:27;;;;;;;36.30;24.27;;;9.00;82.40;;;7.75;86.38;98251.94;5087685;28;20465;-70
2021/10/28 16:46:56;;;;;;;37.53;24.00;;;9.10;82.90;;;7.63;86.92;98253.47;5084784;28;20467;-68
2021/10/28 16:49:23;;;;;;;39.03;24.83;;;9.00;82.70;;;7.55;87.07;98251.75;5084743;28;20467;-69
2021/10/28 16:51:51;;;;;;;41.43;25.17;;;8.90;83.10;;;7.27;87.50;98212.13;5086473;28;21075;-70
2021/10/28 16:54:18;;;;;;;33.77;23.27;;;8.90;83.40;;;7.62;87.29;98255.31;5084316;28;20521;-70
2021/10/28 16:56:46;;;;;;;38.87;23.03;;;8.90;83.40;;;7.61;86.31;98234.00;5086699;28;21027;-69
2021/10/28 16:59:15;;;;;;;39.63;24.50;;;9.00;83.10;;;7.55;86.79;98258.97;5087983;28;20502;-70
2021/10/28 17:01:43;;;;;;;38.70;24.17;;;8.90;83.20;;;7.37;87.92;98255.69;5083025;28;20881;-70
2021/10/28 17:04:10;;;;;;;38.30;24.00;;;8.80;83.90;;;7.65;86.93;98257.63;5101576;28;20517;-70
2021/10/28 17:06:37;;;;;;;32.57;22.50;;;8.80;83.90;;;7.55;87.17;98257.13;5086840;28;20965;-69
2021/10/28 17:09:07;;;;;;;38.00;24.17;;;8.80;83.60;;;7.62;86.66;98251.81;5105765;28;20490;-70
2021/10/28 17:11:35;;;;;;;43.03;24.60;;;8.90;83.70;;;7.46;87.46;98250.19;5118938;27;20459;-74
2021/10/28 17:14:03;;;;;;;33.53;22.03;;;8.80;83.70;;;7.51;87.23;98255.84;5085789;28;20498;-72
2021/10/28 17:16:33;;;;;;;34.77;23.10;;;8.80;84.00;;;7.48;87.62;98265.09;5099366;28;20467;-73
2021/10/28 17:19:01;;;;;;;33.60;22.37;;;8.80;84.50;;;7.51;87.92;98256.66;5084852;28;20552;-71
2021/10/28 17:21:28;;;;;;;34.40;22.33;;;8.70;84.60;;;7.51;87.67;98262.03;5081517;28;20855;-71
2021/10/28 17:24:03;;;;;;;35.50;22.60;;;8.80;84.60;;;7.32;88.24;98263.47;5084653;28;20983;-72
2021/10/28 17:26:32;;;;;;;37.67;24.60;;;8.70;84.70;;;7.46;87.76;98248.34;5083489;28;20512;-71
2021/10/28 17:29:01;;;;;;;35.53;24.80;;;8.70;85.10;;;7.57;87.51;98254.22;5116274;27;20781;-70
2021/10/28 17:31:31;;;;;;;35.37;23.50;;;8.80;84.30;;;7.49;87.44;98261.38;5085676;28;20466;-70
2021/10/28 17:34:01;;;;;;;44.10;26.83;;;8.80;84.20;;;7.12;89.18;98251.63;5087923;28;20493;-71
2021/10/28 17:36:28;;;;;;;41.40;26.23;;;8.60;85.40;;;7.21;89.69;98261.28;5081080;28;20525;-71
2021/10/28 17:38:55;;;;;;;45.23;29.77;;;8.60;86.10;;;7.20;89.50;98259.59;5080445;28;21001;-72
2021/10/28 17:41:23;;;;;;;48.07;29.67;;;8.50;86.50;;;7.30;89.25;98253.94;5101838;28;21046;-73
2021/10/28 17:43:52;;;;;;;46.03;30.40;;;8.60;86.60;;;7.40;88.62;98238.31;5085770;28;20861;-74
2021/10/28 17:46:19;;;;;;;49.90;32.57;;;8.70;86.40;;;7.36;89.21;98247.78;5087949;28;20467;-73
2021/10/28 17:48:48;;;;;;;48.07;31.63;;;8.70;86.60;;;7.29;89.20;98253.09;5090658;28;20466;-72
2021/10/28 17:51:18;;;;;;;53.50;33.83;;;8.70;86.90;;;7.12;90.12;98263.22;5088931;28;20526;-73
2021/10/28 17:53:47;;;;;;;57.60;36.13;;;8.60;87.50;;;7.27;89.72;98249.75;5105610;28;20475;-72
2021/10/28 17:56:16;;;;;;;54.33;33.43;;;8.60;87.30;;;7.25;90.06;98248.28;5104526;28;20838;-71
2021/10/28 17:58:43;;;;;;;59.90;35.23;;;8.60;87.60;;;7.17;90.08;98252.75;5072960;28;20467;-72
2021/10/28 18:01:14;;;;;;;64.30;37.57;;;8.50;87.70;;;7.03;90.20;98235.59;5102840;28;20822;-72
2021/10/28 18:03:41;;;;;;;58.37;34.87;;;8.50;88.10;;;7.24;90.37;98258.22;5092655;28;20539;-72
2021/10/28 18:06:08;;;;;;;58.30;34.80;;;8.50;88.40;;;7.21;90.06;98254.03;5089249;28;20448;-72
2021/10/28 18:08:37;;;;;;;56.63;32.80;;;8.60;87.90;;;7.24;90.03;98260.91;5090704;28;20492;-72
2021/10/28 18:11:04;;;;;;;58.33;36.63;;;8.50;87.70;;;7.24;90.13;98266.28;5087781;28;20880;-73
2021/10/28 18:13:31;;;;;;;59.73;36.47;;;8.50;88.10;;;7.37;89.36;98250.31;5109103;28;20536;-73